sensor_id;sensor_type;location;lat;lon;timestamp;temperature;humidity
65207;SHT31;58477;48.072;11.970;2022-07-29T00:02:23;19.10;69.29
65207;SHT31;58477;48.072;11.970;2022-07-29T00:04:48;19.08;68.82
65207;SHT31;58477;48.072;11.970;2022-07-29T00:07:14;19.04;68.95
65207;SHT31;58477;48.072;11.970;2022-07-29T00:09:39;18.98;69.50
65207;SHT31;58477;48.072;11.970;2022-07-29T00:12:05;18.94;69.84
65207;SHT31;58477;48.072;11.970;2022-07-29T00:14:30;18.88;69.34
65207;SHT31;58477;48.072;11.970;2022-07-29T00:16:56;18.80;70.16
65207;SHT31;58477;48.072;11.970;2022-07-29T00:19:21;18.80;69.48
65207;SHT31;58477;48.072;11.970;2022-07-29T00:21:47;18.78;70.81
65207;SHT31;58477;48.072;11.970;2022-07-29T00:24:12;18.74;70.11
65207;SHT31;58477;48.072;11.970;2022-07-29T00:26:38;18.74;70.31
65207;SHT31;58477;48.072;11.970;2022-07-29T00:29:03;18.68;69.83
65207;SHT31;58477;48.072;11.970;2022-07-29T00:31:29;18.80;69.88
65207;SHT31;58477;48.072;11.970;2022-07-29T00:33:55;18.70;70.86
65207;SHT31;58477;48.072;11.970;2022-07-29T00:36:21;18.67;70.61
65207;SHT31;58477;48.072;11.970;2022-07-29T00:38:50;18.70;71.23
65207;SHT31;58477;48.072;11.970;2022-07-29T00:41:16;18.64;71.20
65207;SHT31;58477;48.072;11.970;2022-07-29T00:43:42;18.66;70.79
65207;SHT31;58477;48.072;11.970;2022-07-29T00:46:08;18.67;70.62
65207;SHT31;58477;48.072;11.970;2022-07-29T00:48:34;18.67;70.68
65207;SHT31;58477;48.072;11.970;2022-07-29T00:51:02;18.70;70.64
65207;SHT31;58477;48.072;11.970;2022-07-29T00:53:27;18.76;70.46
65207;SHT31;58477;48.072;11.970;2022-07-29T00:55:57;18.80;70.60
65207;SHT31;58477;48.072;11.970;2022-07-29T00:58:23;18.73;70.75
65207;SHT31;58477;48.072;11.970;2022-07-29T01:00:49;18.73;70.44
65207;SHT31;58477;48.072;11.970;2022-07-29T01:03:15;18.66;70.71
65207;SHT31;58477;48.072;11.970;2022-07-29T01:05:43;18.76;70.07
65207;SHT31;58477;48.072;11.970;2022-07-29T01:08:11;18.87;69.94
65207;SHT31;58477;48.072;11.970;2022-07-29T01:10:38;18.84;70.10
65207;SHT31;58477;48.072;11.970;2022-07-29T01:13:04;18.84;70.68
65207;SHT31;58477;48.072;11.970;2022-07-29T01:15:30;18.76;70.71
65207;SHT31;58477;48.072;11.970;2022-07-29T01:18:08;18.71;70.87
65207;SHT31;58477;48.072;11.970;2022-07-29T01:20:51;18.70;70.62
65207;SHT31;58477;48.072;11.970;2022-07-29T01:23:44;18.68;70.56
65207;SHT31;58477;48.072;11.970;2022-07-29T01:29:16;18.71;70.66
65207;SHT31;58477;48.072;11.970;2022-07-29T01:31:55;18.63;70.74
65207;SHT31;58477;48.072;11.970;2022-07-29T01:34:24;18.52;71.03
65207;SHT31;58477;48.072;11.970;2022-07-29T01:37:05;18.52;71.01
65207;SHT31;58477;48.072;11.970;2022-07-29T01:39:34;18.70;70.38
65207;SHT31;58477;48.072;11.970;2022-07-29T01:42:08;18.68;70.52
65207;SHT31;58477;48.072;11.970;2022-07-29T01:44:45;18.66;70.11
65207;SHT31;58477;48.072;11.970;2022-07-29T01:47:15;18.33;70.59
65207;SHT31;58477;48.072;11.970;2022-07-29T01:49:47;18.13;71.66
65207;SHT31;58477;48.072;11.970;2022-07-29T01:52:20;18.01;72.08
65207;SHT31;58477;48.072;11.970;2022-07-29T01:54:54;18.12;72.21
65207;SHT31;58477;48.072;11.970;2022-07-29T01:57:26;18.26;72.29
65207;SHT31;58477;48.072;11.970;2022-07-29T01:59:53;18.32;71.97
65207;SHT31;58477;48.072;11.970;2022-07-29T02:02:19;18.25;72.07
65207;SHT31;58477;48.072;11.970;2022-07-29T02:04:46;17.99;72.22
65207;SHT31;58477;48.072;11.970;2022-07-29T02:07:19;17.91;72.38
65207;SHT31;58477;48.072;11.970;2022-07-29T02:09:45;18.03;72.63
65207;SHT31;58477;48.072;11.970;2022-07-29T02:12:14;18.01;72.85
65207;SHT31;58477;48.072;11.970;2022-07-29T02:14:47;17.72;73.40
65207;SHT31;58477;48.072;11.970;2022-07-29T02:17:13;17.57;73.50
65207;SHT31;58477;48.072;11.970;2022-07-29T02:19:43;17.67;73.40
65207;SHT31;58477;48.072;11.970;2022-07-29T02:22:11;17.68;73.41
65207;SHT31;58477;48.072;11.970;2022-07-29T02:24:38;17.61;73.61
65207;SHT31;58477;48.072;11.970;2022-07-29T02:27:07;17.71;73.64
65207;SHT31;58477;48.072;11.970;2022-07-29T02:29:34;17.74;73.35
65207;SHT31;58477;48.072;11.970;2022-07-29T02:32:02;17.57;74.25
65207;SHT31;58477;48.072;11.970;2022-07-29T02:34:29;17.58;74.25
65207;SHT31;58477;48.072;11.970;2022-07-29T02:36:55;17.49;74.23
65207;SHT31;58477;48.072;11.970;2022-07-29T02:39:22;17.31;74.87
65207;SHT31;58477;48.072;11.970;2022-07-29T02:41:57;17.31;74.89
65207;SHT31;58477;48.072;11.970;2022-07-29T02:44:25;17.20;75.00
65207;SHT31;58477;48.072;11.970;2022-07-29T02:47:20;17.10;75.16
65207;SHT31;58477;48.072;11.970;2022-07-29T02:49:57;17.21;76.57
65207;SHT31;58477;48.072;11.970;2022-07-29T02:52:34;17.02;75.85
65207;SHT31;58477;48.072;11.970;2022-07-29T02:55:19;17.11;75.39
65207;SHT31;58477;48.072;11.970;2022-07-29T02:57:51;17.35;75.04
65207;SHT31;58477;48.072;11.970;2022-07-29T03:00:21;17.32;76.05
65207;SHT31;58477;48.072;11.970;2022-07-29T03:02:50;17.31;75.95
65207;SHT31;58477;48.072;11.970;2022-07-29T03:05:20;17.14;76.32
65207;SHT31;58477;48.072;11.970;2022-07-29T03:07:52;17.20;76.42
65207;SHT31;58477;48.072;11.970;2022-07-29T03:10:19;17.21;75.49
65207;SHT31;58477;48.072;11.970;2022-07-29T03:12:45;17.28;76.07
65207;SHT31;58477;48.072;11.970;2022-07-29T03:15:10;17.38;75.54
65207;SHT31;58477;48.072;11.970;2022-07-29T03:17:36;17.42;75.61
65207;SHT31;58477;48.072;11.970;2022-07-29T03:20:03;17.31;75.41
65207;SHT31;58477;48.072;11.970;2022-07-29T03:22:29;17.25;75.89
65207;SHT31;58477;48.072;11.970;2022-07-29T03:24:54;17.47;75.34
65207;SHT31;58477;48.072;11.970;2022-07-29T03:27:20;17.49;75.32
65207;SHT31;58477;48.072;11.970;2022-07-29T03:29:45;17.25;75.19
65207;SHT31;58477;48.072;11.970;2022-07-29T03:32:11;17.31;75.75
65207;SHT31;58477;48.072;11.970;2022-07-29T03:34:36;17.42;75.63
65207;SHT31;58477;48.072;11.970;2022-07-29T03:37:03;17.32;75.19
65207;SHT31;58477;48.072;11.970;2022-07-29T03:39:31;17.30;76.33
65207;SHT31;58477;48.072;11.970;2022-07-29T03:41:59;17.10;75.72
65207;SHT31;58477;48.072;11.970;2022-07-29T03:44:27;16.97;76.21
65207;SHT31;58477;48.072;11.970;2022-07-29T03:46:55;17.23;76.31
65207;SHT31;58477;48.072;11.970;2022-07-29T03:49:24;17.27;75.99
65207;SHT31;58477;48.072;11.970;2022-07-29T03:51:51;17.28;75.85
65207;SHT31;58477;48.072;11.970;2022-07-29T03:54:16;17.14;76.10
65207;SHT31;58477;48.072;11.970;2022-07-29T03:56:43;17.11;76.58
65207;SHT31;58477;48.072;11.970;2022-07-29T03:59:13;17.11;76.26
65207;SHT31;58477;48.072;11.970;2022-07-29T04:01:39;17.18;76.57
65207;SHT31;58477;48.072;11.970;2022-07-29T04:04:05;17.18;76.08
65207;SHT31;58477;48.072;11.970;2022-07-29T04:06:45;17.21;76.29
65207;SHT31;58477;48.072;11.970;2022-07-29T04:09:11;17.15;76.83
65207;SHT31;58477;48.072;11.970;2022-07-29T04:11:39;17.18;76.67
65207;SHT31;58477;48.072;11.970;2022-07-29T04:14:05;17.14;76.80
65207;SHT31;58477;48.072;11.970;2022-07-29T04:16:31;17.13;77.12
65207;SHT31;58477;48.072;11.970;2022-07-29T04:18:56;17.10;77.35
65207;SHT31;58477;48.072;11.970;2022-07-29T04:21:22;17.07;77.49
65207;SHT31;58477;48.072;11.970;2022-07-29T04:23:47;17.11;77.43
65207;SHT31;58477;48.072;11.970;2022-07-29T04:26:19;17.08;77.84
65207;SHT31;58477;48.072;11.970;2022-07-29T04:28:46;17.13;77.72
65207;SHT31;58477;48.072;11.970;2022-07-29T04:31:12;17.10;78.00
65207;SHT31;58477;48.072;11.970;2022-07-29T04:33:38;17.31;76.73
65207;SHT31;58477;48.072;11.970;2022-07-29T04:36:04;17.15;77.32
65207;SHT31;58477;48.072;11.970;2022-07-29T04:38:30;17.15;77.91
65207;SHT31;58477;48.072;11.970;2022-07-29T04:40:55;17.38;76.63
65207;SHT31;58477;48.072;11.970;2022-07-29T04:43:21;17.27;76.48
65207;SHT31;58477;48.072;11.970;2022-07-29T04:45:46;17.21;76.60
65207;SHT31;58477;48.072;11.970;2022-07-29T04:48:11;17.02;77.11
65207;SHT31;58477;48.072;11.970;2022-07-29T04:50:40;16.91;77.43
65207;SHT31;58477;48.072;11.970;2022-07-29T04:53:06;16.85;77.50
65207;SHT31;58477;48.072;11.970;2022-07-29T04:55:32;16.83;77.55
65207;SHT31;58477;48.072;11.970;2022-07-29T04:57:58;16.94;77.20
65207;SHT31;58477;48.072;11.970;2022-07-29T05:00:23;17.04;76.81
65207;SHT31;58477;48.072;11.970;2022-07-29T05:02:49;17.00;76.99
65207;SHT31;58477;48.072;11.970;2022-07-29T05:05:15;17.20;77.11
65207;SHT31;58477;48.072;11.970;2022-07-29T05:07:40;17.41;76.00
65207;SHT31;58477;48.072;11.970;2022-07-29T05:10:07;17.48;75.25
65207;SHT31;58477;48.072;11.970;2022-07-29T05:12:32;17.57;77.31
65207;SHT31;58477;48.072;11.970;2022-07-29T05:14:58;17.55;76.75
65207;SHT31;58477;48.072;11.970;2022-07-29T05:17:23;17.24;78.92
65207;SHT31;58477;48.072;11.970;2022-07-29T05:19:49;17.48;77.54
65207;SHT31;58477;48.072;11.970;2022-07-29T05:22:19;17.59;77.08
65207;SHT31;58477;48.072;11.970;2022-07-29T05:24:45;17.74;77.28
65207;SHT31;58477;48.072;11.970;2022-07-29T05:27:10;17.89;76.73
65207;SHT31;58477;48.072;11.970;2022-07-29T05:29:36;18.12;75.59
65207;SHT31;58477;48.072;11.970;2022-07-29T05:32:02;19.12;73.50
65207;SHT31;58477;48.072;11.970;2022-07-29T05:34:28;19.69;71.82
65207;SHT31;58477;48.072;11.970;2022-07-29T05:36:53;21.12;68.27
65207;SHT31;58477;48.072;11.970;2022-07-29T05:39:19;22.07;66.16
65207;SHT31;58477;48.072;11.970;2022-07-29T05:41:44;23.28;62.49
65207;SHT31;58477;48.072;11.970;2022-07-29T05:44:10;24.37;59.64
65207;SHT31;58477;48.072;11.970;2022-07-29T05:46:36;24.83;58.46
65207;SHT31;58477;48.072;11.970;2022-07-29T05:49:01;24.21;60.15
65207;SHT31;58477;48.072;11.970;2022-07-29T05:51:28;24.20;59.32
65207;SHT31;58477;48.072;11.970;2022-07-29T05:53:53;24.70;60.89
65207;SHT31;58477;48.072;11.970;2022-07-29T05:56:18;25.55;58.39
65207;SHT31;58477;48.072;11.970;2022-07-29T05:58:44;25.45;59.14
65207;SHT31;58477;48.072;11.970;2022-07-29T06:01:09;26.34;58.21
65207;SHT31;58477;48.072;11.970;2022-07-29T06:03:34;26.39;55.28
65207;SHT31;58477;48.072;11.970;2022-07-29T06:06:03;24.94;57.47
65207;SHT31;58477;48.072;11.970;2022-07-29T06:08:28;25.18;58.40
65207;SHT31;58477;48.072;11.970;2022-07-29T06:10:54;23.45;62.03
65207;SHT31;58477;48.072;11.970;2022-07-29T06:13:19;24.02;61.47
65207;SHT31;58477;48.072;11.970;2022-07-29T06:15:44;23.95;61.22
65207;SHT31;58477;48.072;11.970;2022-07-29T06:18:12;23.44;62.32
65207;SHT31;58477;48.072;11.970;2022-07-29T06:20:38;23.45;62.99
65207;SHT31;58477;48.072;11.970;2022-07-29T06:23:03;22.87;64.19
65207;SHT31;58477;48.072;11.970;2022-07-29T06:25:29;23.08;63.59
65207;SHT31;58477;48.072;11.970;2022-07-29T06:27:55;23.34;63.57
65207;SHT31;58477;48.072;11.970;2022-07-29T06:30:21;23.62;62.62
65207;SHT31;58477;48.072;11.970;2022-07-29T06:32:46;23.39;62.69
65207;SHT31;58477;48.072;11.970;2022-07-29T06:35:12;24.13;60.88
65207;SHT31;58477;48.072;11.970;2022-07-29T06:37:37;24.41;60.14
65207;SHT31;58477;48.072;11.970;2022-07-29T06:40:03;24.71;60.25
65207;SHT31;58477;48.072;11.970;2022-07-29T06:42:48;24.63;60.41
65207;SHT31;58477;48.072;11.970;2022-07-29T06:45:13;25.34;58.32
65207;SHT31;58477;48.072;11.970;2022-07-29T06:47:39;25.35;57.77
65207;SHT31;58477;48.072;11.970;2022-07-29T06:50:04;25.88;56.74
65207;SHT31;58477;48.072;11.970;2022-07-29T06:52:30;25.29;58.73
65207;SHT31;58477;48.072;11.970;2022-07-29T06:54:55;25.29;58.00
65207;SHT31;58477;48.072;11.970;2022-07-29T06:57:21;25.17;57.94
65207;SHT31;58477;48.072;11.970;2022-07-29T06:59:47;25.69;58.18
65207;SHT31;58477;48.072;11.970;2022-07-29T07:02:13;26.10;56.39
65207;SHT31;58477;48.072;11.970;2022-07-29T07:04:38;26.22;56.13
65207;SHT31;58477;48.072;11.970;2022-07-29T07:07:04;26.56;55.42
65207;SHT31;58477;48.072;11.970;2022-07-29T07:09:29;25.96;56.12
65207;SHT31;58477;48.072;11.970;2022-07-29T07:11:55;26.07;56.05
65207;SHT31;58477;48.072;11.970;2022-07-29T07:14:20;26.48;55.22
65207;SHT31;58477;48.072;11.970;2022-07-29T07:16:46;26.74;54.27
65207;SHT31;58477;48.072;11.970;2022-07-29T07:19:11;26.54;55.18
65207;SHT31;58477;48.072;11.970;2022-07-29T07:21:37;26.65;54.45
65207;SHT31;58477;48.072;11.970;2022-07-29T07:24:02;26.83;55.29
65207;SHT31;58477;48.072;11.970;2022-07-29T07:26:28;28.13;51.49
65207;SHT31;58477;48.072;11.970;2022-07-29T07:28:53;27.24;53.59
65207;SHT31;58477;48.072;11.970;2022-07-29T07:31:19;27.46;53.17
65207;SHT31;58477;48.072;11.970;2022-07-29T07:33:45;27.41;54.11
65207;SHT31;58477;48.072;11.970;2022-07-29T07:36:10;29.10;49.56
65207;SHT31;58477;48.072;11.970;2022-07-29T07:38:36;29.45;48.20
65207;SHT31;58477;48.072;11.970;2022-07-29T07:41:01;28.48;51.04
65207;SHT31;58477;48.072;11.970;2022-07-29T07:43:27;28.30;49.95
65207;SHT31;58477;48.072;11.970;2022-07-29T07:45:52;28.12;51.05
65207;SHT31;58477;48.072;11.970;2022-07-29T07:48:18;28.78;49.51
65207;SHT31;58477;48.072;11.970;2022-07-29T07:50:43;28.64;50.44
65207;SHT31;58477;48.072;11.970;2022-07-29T07:53:09;28.90;50.65
65207;SHT31;58477;48.072;11.970;2022-07-29T07:55:39;28.97;48.82
65207;SHT31;58477;48.072;11.970;2022-07-29T07:58:05;29.35;47.34
65207;SHT31;58477;48.072;11.970;2022-07-29T08:00:31;29.32;46.92
65207;SHT31;58477;48.072;11.970;2022-07-29T08:02:57;29.70;47.71
65207;SHT31;58477;48.072;11.970;2022-07-29T08:05:23;29.90;46.54
65207;SHT31;58477;48.072;11.970;2022-07-29T08:07:49;29.55;48.13
65207;SHT31;58477;48.072;11.970;2022-07-29T08:10:15;30.03;46.48
65207;SHT31;58477;48.072;11.970;2022-07-29T08:13:05;29.65;47.75
65207;SHT31;58477;48.072;11.970;2022-07-29T08:15:31;29.76;47.16
65207;SHT31;58477;48.072;11.970;2022-07-29T08:17:57;29.04;47.75
65207;SHT31;58477;48.072;11.970;2022-07-29T08:20:22;30.43;45.69
65207;SHT31;58477;48.072;11.970;2022-07-29T08:22:47;29.67;48.33
65207;SHT31;58477;48.072;11.970;2022-07-29T08:25:13;29.63;47.78
65207;SHT31;58477;48.072;11.970;2022-07-29T08:27:38;29.99;46.84
65207;SHT31;58477;48.072;11.970;2022-07-29T08:30:04;30.92;44.83
65207;SHT31;58477;48.072;11.970;2022-07-29T08:32:30;29.89;46.02
65207;SHT31;58477;48.072;11.970;2022-07-29T08:34:56;29.25;46.31
65207;SHT31;58477;48.072;11.970;2022-07-29T08:37:22;29.45;46.79
65207;SHT31;58477;48.072;11.970;2022-07-29T08:39:47;28.94;46.82
65207;SHT31;58477;48.072;11.970;2022-07-29T08:42:13;29.43;46.56
65207;SHT31;58477;48.072;11.970;2022-07-29T08:44:39;30.65;44.64
65207;SHT31;58477;48.072;11.970;2022-07-29T08:47:04;30.71;45.62
65207;SHT31;58477;48.072;11.970;2022-07-29T08:49:33;29.76;46.60
65207;SHT31;58477;48.072;11.970;2022-07-29T08:51:59;30.58;45.73
65207;SHT31;58477;48.072;11.970;2022-07-29T08:54:25;31.72;42.85
65207;SHT31;58477;48.072;11.970;2022-07-29T08:56:53;30.82;44.35
65207;SHT31;58477;48.072;11.970;2022-07-29T08:59:20;31.63;43.20
65207;SHT31;58477;48.072;11.970;2022-07-29T09:01:48;33.14;41.70
65207;SHT31;58477;48.072;11.970;2022-07-29T09:04:20;32.75;41.08
65207;SHT31;58477;48.072;11.970;2022-07-29T09:06:48;31.76;42.02
65207;SHT31;58477;48.072;11.970;2022-07-29T09:09:14;31.79;42.24
65207;SHT31;58477;48.072;11.970;2022-07-29T09:11:43;31.55;43.37
65207;SHT31;58477;48.072;11.970;2022-07-29T09:14:11;31.39;43.24
65207;SHT31;58477;48.072;11.970;2022-07-29T09:16:54;31.36;43.86
65207;SHT31;58477;48.072;11.970;2022-07-29T09:21:46;31.55;43.71
65207;SHT31;58477;48.072;11.970;2022-07-29T09:26:56;33.35;40.70
65207;SHT31;58477;48.072;11.970;2022-07-29T09:29:23;31.96;42.85
65207;SHT31;58477;48.072;11.970;2022-07-29T09:31:51;31.53;43.13
65207;SHT31;58477;48.072;11.970;2022-07-29T09:34:22;30.77;45.53
65207;SHT31;58477;48.072;11.970;2022-07-29T09:36:49;32.20;44.81
65207;SHT31;58477;48.072;11.970;2022-07-29T09:41:59;32.36;42.17
65207;SHT31;58477;48.072;11.970;2022-07-29T09:44:26;33.15;41.25
65207;SHT31;58477;48.072;11.970;2022-07-29T09:47:02;32.47;41.87
65207;SHT31;58477;48.072;11.970;2022-07-29T09:49:32;32.43;43.11
65207;SHT31;58477;48.072;11.970;2022-07-29T09:52:09;31.86;44.85
65207;SHT31;58477;48.072;11.970;2022-07-29T09:54:36;32.03;43.47
65207;SHT31;58477;48.072;11.970;2022-07-29T09:57:07;33.10;40.63
65207;SHT31;58477;48.072;11.970;2022-07-29T09:59:34;33.12;39.63
65207;SHT31;58477;48.072;11.970;2022-07-29T10:02:00;33.39;40.18
65207;SHT31;58477;48.072;11.970;2022-07-29T10:04:37;33.14;38.28
65207;SHT31;58477;48.072;11.970;2022-07-29T10:07:03;32.67;38.29
65207;SHT31;58477;48.072;11.970;2022-07-29T10:09:31;33.10;36.87
65207;SHT31;58477;48.072;11.970;2022-07-29T10:14:31;34.86;35.72
65207;SHT31;58477;48.072;11.970;2022-07-29T10:16:59;33.70;38.29
65207;SHT31;58477;48.072;11.970;2022-07-29T10:19:25;32.77;39.91
65207;SHT31;58477;48.072;11.970;2022-07-29T10:21:51;32.00;40.13
65207;SHT31;58477;48.072;11.970;2022-07-29T10:24:17;34.03;38.09
65207;SHT31;58477;48.072;11.970;2022-07-29T10:26:43;34.81;36.34
65207;SHT31;58477;48.072;11.970;2022-07-29T10:29:09;32.24;39.90
65207;SHT31;58477;48.072;11.970;2022-07-29T10:31:47;31.29;41.35
65207;SHT31;58477;48.072;11.970;2022-07-29T10:40:22;29.87;43.86
65207;SHT31;58477;48.072;11.970;2022-07-29T10:43:36;30.82;44.45
65207;SHT31;58477;48.072;11.970;2022-07-29T10:46:04;31.38;42.26
65207;SHT31;58477;48.072;11.970;2022-07-29T10:48:29;31.50;43.64
65207;SHT31;58477;48.072;11.970;2022-07-29T10:50:58;30.70;44.39
65207;SHT31;58477;48.072;11.970;2022-07-29T10:53:51;30.19;44.72
65207;SHT31;58477;48.072;11.970;2022-07-29T10:56:42;32.19;45.08
65207;SHT31;58477;48.072;11.970;2022-07-29T11:01:43;33.93;38.82
65207;SHT31;58477;48.072;11.970;2022-07-29T11:04:08;32.88;42.98
65207;SHT31;58477;48.072;11.970;2022-07-29T11:09:30;31.42;42.55
65207;SHT31;58477;48.072;11.970;2022-07-29T11:11:56;32.13;41.40
65207;SHT31;58477;48.072;11.970;2022-07-29T11:17:21;30.23;44.22
65207;SHT31;58477;48.072;11.970;2022-07-29T11:19:47;29.53;46.20
65207;SHT31;58477;48.072;11.970;2022-07-29T11:22:34;28.88;47.59
65207;SHT31;58477;48.072;11.970;2022-07-29T11:25:14;29.18;47.31
65207;SHT31;58477;48.072;11.970;2022-07-29T11:27:39;28.24;48.36
65207;SHT31;58477;48.072;11.970;2022-07-29T11:30:05;28.54;49.01
65207;SHT31;58477;48.072;11.970;2022-07-29T11:32:39;27.96;48.18
65207;SHT31;58477;48.072;11.970;2022-07-29T11:37:36;27.66;50.42
65207;SHT31;58477;48.072;11.970;2022-07-29T11:47:41;27.24;51.55
65207;SHT31;58477;48.072;11.970;2022-07-29T11:50:13;27.38;51.82
65207;SHT31;58477;48.072;11.970;2022-07-29T11:52:42;27.43;50.93
65207;SHT31;58477;48.072;11.970;2022-07-29T11:55:16;27.49;49.14
65207;SHT31;58477;48.072;11.970;2022-07-29T11:57:50;28.68;45.33
65207;SHT31;58477;48.072;11.970;2022-07-29T12:00:38;30.74;44.37
65207;SHT31;58477;48.072;11.970;2022-07-29T12:03:06;31.21;42.59
65207;SHT31;58477;48.072;11.970;2022-07-29T12:05:44;32.84;39.81
65207;SHT31;58477;48.072;11.970;2022-07-29T12:10:35;33.15;39.35
65207;SHT31;58477;48.072;11.970;2022-07-29T12:13:01;33.42;40.00
65207;SHT31;58477;48.072;11.970;2022-07-29T12:15:27;33.00;39.34
65207;SHT31;58477;48.072;11.970;2022-07-29T12:17:55;33.25;38.91
65207;SHT31;58477;48.072;11.970;2022-07-29T12:20:27;33.96;38.24
65207;SHT31;58477;48.072;11.970;2022-07-29T12:22:53;33.95;38.47
65207;SHT31;58477;48.072;11.970;2022-07-29T12:25:20;33.79;36.51
65207;SHT31;58477;48.072;11.970;2022-07-29T12:27:46;32.17;39.22
65207;SHT31;58477;48.072;11.970;2022-07-29T12:30:14;32.85;37.47
65207;SHT31;58477;48.072;11.970;2022-07-29T12:32:42;32.27;39.58
65207;SHT31;58477;48.072;11.970;2022-07-29T12:35:11;31.72;40.56
65207;SHT31;58477;48.072;11.970;2022-07-29T12:37:38;30.77;42.18
65207;SHT31;58477;48.072;11.970;2022-07-29T12:40:05;30.05;42.01
65207;SHT31;58477;48.072;11.970;2022-07-29T12:42:31;29.85;42.64
65207;SHT31;58477;48.072;11.970;2022-07-29T12:44:57;29.73;42.34
65207;SHT31;58477;48.072;11.970;2022-07-29T12:47:23;29.31;43.90
65207;SHT31;58477;48.072;11.970;2022-07-29T12:49:49;29.77;43.73
65207;SHT31;58477;48.072;11.970;2022-07-29T12:52:31;31.38;40.42
65207;SHT31;58477;48.072;11.970;2022-07-29T12:54:58;31.85;39.35
65207;SHT31;58477;48.072;11.970;2022-07-29T12:57:24;31.75;41.33
65207;SHT31;58477;48.072;11.970;2022-07-29T13:00:10;30.78;41.90
65207;SHT31;58477;48.072;11.970;2022-07-29T13:02:37;30.29;40.97
65207;SHT31;58477;48.072;11.970;2022-07-29T13:05:05;30.16;40.10
65207;SHT31;58477;48.072;11.970;2022-07-29T13:07:32;30.54;39.92
65207;SHT31;58477;48.072;11.970;2022-07-29T13:10:21;30.70;38.00
65207;SHT31;58477;48.072;11.970;2022-07-29T13:13:06;31.56;40.02
65207;SHT31;58477;48.072;11.970;2022-07-29T13:15:33;31.35;39.56
65207;SHT31;58477;48.072;11.970;2022-07-29T13:17:59;31.32;40.23
65207;SHT31;58477;48.072;11.970;2022-07-29T13:20:27;31.92;42.18
65207;SHT31;58477;48.072;11.970;2022-07-29T13:22:59;31.53;39.48
65207;SHT31;58477;48.072;11.970;2022-07-29T13:25:29;31.72;38.67
65207;SHT31;58477;48.072;11.970;2022-07-29T13:27:55;31.34;41.98
65207;SHT31;58477;48.072;11.970;2022-07-29T13:30:22;30.72;41.58
65207;SHT31;58477;48.072;11.970;2022-07-29T13:32:48;31.04;40.27
65207;SHT31;58477;48.072;11.970;2022-07-29T13:35:13;31.31;40.00
65207;SHT31;58477;48.072;11.970;2022-07-29T13:37:39;32.19;39.31
65207;SHT31;58477;48.072;11.970;2022-07-29T13:40:09;33.07;38.31
65207;SHT31;58477;48.072;11.970;2022-07-29T13:42:35;32.87;37.39
65207;SHT31;58477;48.072;11.970;2022-07-29T13:45:01;32.90;38.19
65207;SHT31;58477;48.072;11.970;2022-07-29T13:47:27;31.79;39.88
65207;SHT31;58477;48.072;11.970;2022-07-29T13:49:54;30.56;41.88
65207;SHT31;58477;48.072;11.970;2022-07-29T13:52:19;29.82;43.98
65207;SHT31;58477;48.072;11.970;2022-07-29T13:54:45;29.95;43.61
65207;SHT31;58477;48.072;11.970;2022-07-29T13:57:11;30.56;43.78
65207;SHT31;58477;48.072;11.970;2022-07-29T13:59:40;30.98;43.60
65207;SHT31;58477;48.072;11.970;2022-07-29T14:02:06;30.80;42.05
65207;SHT31;58477;48.072;11.970;2022-07-29T14:04:32;30.34;41.11
65207;SHT31;58477;48.072;11.970;2022-07-29T14:06:58;30.03;42.52
65207;SHT31;58477;48.072;11.970;2022-07-29T14:09:23;29.69;43.34
65207;SHT31;58477;48.072;11.970;2022-07-29T14:11:50;30.21;42.13
65207;SHT31;58477;48.072;11.970;2022-07-29T14:14:18;30.05;42.09
65207;SHT31;58477;48.072;11.970;2022-07-29T14:16:44;29.76;44.92
65207;SHT31;58477;48.072;11.970;2022-07-29T14:19:09;29.42;44.42
65207;SHT31;58477;48.072;11.970;2022-07-29T14:21:36;29.22;45.71
65207;SHT31;58477;48.072;11.970;2022-07-29T14:24:02;28.77;46.92
65207;SHT31;58477;48.072;11.970;2022-07-29T14:26:27;28.72;46.94
65207;SHT31;58477;48.072;11.970;2022-07-29T14:28:53;28.32;46.90
65207;SHT31;58477;48.072;11.970;2022-07-29T14:31:18;28.58;47.80
65207;SHT31;58477;48.072;11.970;2022-07-29T14:33:43;28.74;46.78
65207;SHT31;58477;48.072;11.970;2022-07-29T14:36:09;28.82;45.94
65207;SHT31;58477;48.072;11.970;2022-07-29T14:38:35;28.63;48.36
65207;SHT31;58477;48.072;11.970;2022-07-29T14:41:02;28.63;49.22
65207;SHT31;58477;48.072;11.970;2022-07-29T14:43:28;28.50;47.29
65207;SHT31;58477;48.072;11.970;2022-07-29T14:45:53;28.13;48.64
65207;SHT31;58477;48.072;11.970;2022-07-29T14:48:19;28.00;49.73
65207;SHT31;58477;48.072;11.970;2022-07-29T14:50:44;28.10;48.51
65207;SHT31;58477;48.072;11.970;2022-07-29T14:53:10;28.20;49.43
65207;SHT31;58477;48.072;11.970;2022-07-29T14:55:37;28.57;47.74
65207;SHT31;58477;48.072;11.970;2022-07-29T14:58:02;28.81;48.78
65207;SHT31;58477;48.072;11.970;2022-07-29T15:00:28;29.25;47.48
65207;SHT31;58477;48.072;11.970;2022-07-29T15:02:58;29.58;45.07
65207;SHT31;58477;48.072;11.970;2022-07-29T15:05:24;29.53;46.77
65207;SHT31;58477;48.072;11.970;2022-07-29T15:07:50;29.67;45.61
65207;SHT31;58477;48.072;11.970;2022-07-29T15:10:15;29.41;45.16
65207;SHT31;58477;48.072;11.970;2022-07-29T15:12:41;29.14;45.79
65207;SHT31;58477;48.072;11.970;2022-07-29T15:15:06;28.51;48.05
65207;SHT31;58477;48.072;11.970;2022-07-29T15:17:32;28.68;47.56
65207;SHT31;58477;48.072;11.970;2022-07-29T15:19:58;28.97;48.31
65207;SHT31;58477;48.072;11.970;2022-07-29T15:22:23;29.43;48.24
65207;SHT31;58477;48.072;11.970;2022-07-29T15:24:49;29.41;46.45
65207;SHT31;58477;48.072;11.970;2022-07-29T15:27:14;29.61;47.62
65207;SHT31;58477;48.072;11.970;2022-07-29T15:29:41;29.59;45.97
65207;SHT31;58477;48.072;11.970;2022-07-29T15:32:06;29.77;45.42
65207;SHT31;58477;48.072;11.970;2022-07-29T15:34:32;28.98;45.89
65207;SHT31;58477;48.072;11.970;2022-07-29T15:36:57;28.81;49.14
65207;SHT31;58477;48.072;11.970;2022-07-29T15:39:23;28.39;49.31
65207;SHT31;58477;48.072;11.970;2022-07-29T15:41:49;27.69;47.64
65207;SHT31;58477;48.072;11.970;2022-07-29T15:44:14;27.35;49.09
65207;SHT31;58477;48.072;11.970;2022-07-29T15:46:39;27.09;50.66
65207;SHT31;58477;48.072;11.970;2022-07-29T15:49:23;26.61;50.01
65207;SHT31;58477;48.072;11.970;2022-07-29T15:51:55;26.57;51.77
65207;SHT31;58477;48.072;11.970;2022-07-29T15:54:21;26.61;52.66
65207;SHT31;58477;48.072;11.970;2022-07-29T15:56:46;26.29;53.19
65207;SHT31;58477;48.072;11.970;2022-07-29T15:59:12;26.20;53.85
65207;SHT31;58477;48.072;11.970;2022-07-29T16:01:37;26.29;53.98